Time;durP1;ratioP1;P1;durP2;ratioP2;P2;SDS_P1;SDS_P2;PMS_P1;PMS_P2;Temp;Humidity;BMP_temperature;BMP_pressure;BME280_temperature;BME280_humidity;BME280_pressure;Samples;Min_cycle;Max_cycle;Signal;HPM_P1;HPM_P2
2023/01/11 00:01:53;;;;;;;;;;;;;;;;;;5078213;28;19931;-91
2023/01/11 00:04:22;;;;;;;;;;;;;;;;;;5082237;28;19931;-90
2023/01/11 00:06:49;;;;;;;;;;;;;;;;;;5086011;28;19931;-92
2023/01/11 00:09:17;;;;;;;;;;;;;;;;;;5086948;28;19932;-91
2023/01/11 00:11:49;;;;;;;;;;;;;;;;;;5086084;28;19924;-91
2023/01/11 00:14:22;;;;;;;;;;;;;;;;;;5092776;28;19924;-89
2023/01/11 00:16:49;;;;;;;;;;;;;;;;;;5083847;28;19947;-91
2023/01/11 00:19:22;;;;;;;;;;;;;;;;;;5084275;28;20379;-92
2023/01/11 00:21:54;;;;;;;;;;;;;;;;;;5083577;28;19925;-89
2023/01/11 00:24:22;;;;;;;;;;;;;;;;;;5087473;28;19947;-90
2023/01/11 00:26:54;;;;;;;;;;;;;;;;;;5083798;28;20349;-90
2023/01/11 00:29:27;;;;;;;;;;;;;;;;;;5084581;28;19932;-89
2023/01/11 00:31:59;;;;;;;;;;;;;;;;;;5091005;28;20300;-90
2023/01/11 00:34:27;;;;;;;;;;;;;;;;;;5077048;28;20463;-90
2023/01/11 00:36:59;;;;;;;;;;;;;;;;;;5083351;28;20332;-89
2023/01/11 00:39:27;;;;;;;;;;;;;;;;;;5091231;28;20688;-90
2023/01/11 00:50:20;;;;;;;;;;;;;;;;;;5083949;28;19967;-89
2023/01/11 00:52:52;;;;;;;;;;;;;;;;;;5081848;28;19924;-89
2023/01/11 00:55:20;;;;;;;;;;;;;;;;;;5080190;28;19924;-87
2023/01/11 00:57:52;;;;;;;;;;;;;;;;;;5077823;28;19931;-89
2023/01/11 01:00:20;;;;;;;;;;;;;;;;;;5081128;28;20293;-90
2023/01/11 01:02:52;;;;;;;;;;;;;;;;;;5078202;28;19928;-88
2023/01/11 01:05:19;;;;;;;;;;;;;;;;;;5080071;28;19933;-90
2023/01/11 01:07:47;;;;;;;;;;;;;;;;;;5092188;28;19928;-86
2023/01/11 01:10:14;;;;;;;;;;;;;;;;;;5090508;28;19924;-92
2023/01/11 01:15:37;;;;;;;;;;;;;;;;;;5076510;28;19943;-90
2023/01/11 01:18:10;;;;;;;;;;;;;;;;;;5087733;28;19924;-91
2023/01/11 01:20:42;;;;;;;;;;;;;;;;;;5075713;28;19931;-88
2023/01/11 01:23:15;;;;;;;;;;;;;;;;;;5082344;28;19932;-90
2023/01/11 01:25:42;;;;;;;;;;;;;;;;;;5100944;28;19925;-89
2023/01/11 01:28:15;;;;;;;;;;;;;;;;;;5081432;28;19931;-88
2023/01/11 01:30:43;;;;;;;;;;;;;;;;;;5083869;28;19929;-90
2023/01/11 01:33:10;;;;;;;;;;;;;;;;;;5074103;28;19924;-87
2023/01/11 01:35:43;;;;;;;;;;;;;;;;;;5081707;28;19932;-90
2023/01/11 01:38:15;;;;;;;;;;;;;;;;;;5072539;28;20389;-86
2023/01/11 01:40:43;;;;;;;;;;;;;;;;;;5073004;28;20376;-91
2023/01/11 01:43:15;;;;;;;;;;;;;;;;;;5079641;28;20395;-89
2023/01/11 01:45:49;;;;;;;;;;;;;;;;;;5072687;28;19928;-89
2023/01/11 01:48:16;;;;;;;;;;;;;;;;;;5077767;28;19925;-90
2023/01/11 01:50:49;;;;;;;;;;;;;;;;;;5091558;28;20296;-92
2023/01/11 01:53:21;;;;;;;;;;;;;;;;;;5092586;28;19924;-91
2023/01/11 01:55:53;;;;;;;;;;;;;;;;;;5091353;28;19931;-91
2023/01/11 01:58:26;;;;;;;;;;;;;;;;;;5088127;28;19932;-88
2023/01/11 02:00:53;;;;;;;;;;;;;;;;;;5095307;28;19924;-89
2023/01/11 02:03:26;;;;;;;;;;;;;;;;;;5083377;28;20300;-89
2023/01/11 02:05:53;;;;;;;;;;;;;;;;;;5083015;28;19935;-91
2023/01/11 02:08:21;;;;;;;;;;;;;;;;;;5088660;28;19932;-89
2023/01/11 02:10:48;;;;;;;;;;;;;;;;;;5092192;28;19924;-91
2023/01/11 02:13:21;;;;;;;;;;;;;;;;;;5092285;28;20828;-90
2023/01/11 02:16:06;;;;;;;;;;;;;;;;;;5092169;28;19924;-92
2023/01/11 02:18:33;;;;;;;;;;;;;;;;;;5078587;28;19935;-88
2023/01/11 02:21:01;;;;;;;;;;;;;;;;;;5074542;28;19931;-91
2023/01/11 02:23:28;;;;;;;;;;;;;;;;;;5085703;28;19939;-90
2023/01/11 02:26:01;;;;;;;;;;;;;;;;;;5082731;28;19924;-91
2023/01/11 02:28:33;;;;;;;;;;;;;;;;;;5082193;28;19924;-87
2023/01/11 02:31:06;;;;;;;;;;;;;;;;;;5091734;28;19924;-87
2023/01/11 02:33:33;;;;;;;;;;;;;;;;;;5087433;28;19928;-87
2023/01/11 02:36:01;;;;;;;;;;;;;;;;;;5091699;28;19924;-90
2023/01/11 02:38:33;;;;;;;;;;;;;;;;;;5091316;28;19924;-91
2023/01/11 02:41:00;;;;;;;;;;;;;;;;;;5075354;28;19925;-90
2023/01/11 02:46:23;;;;;;;;;;;;;;;;;;5088608;28;19932;-89
2023/01/11 02:48:50;;;;;;;;;;;;;;;;;;5074849;28;19929;-92
2023/01/11 02:51:23;;;;;;;;;;;;;;;;;;5078497;28;19924;-91
2023/01/11 02:53:55;;;;;;;;;;;;;;;;;;5079832;28;19939;-89
2023/01/11 02:56:28;;;;;;;;;;;;;;;;;;5092348;28;19928;-89
2023/01/11 02:59:00;;;;;;;;;;;;;;;;;;5088358;28;19924;-90
2023/01/11 03:01:33;;;;;;;;;;;;;;;;;;5097248;28;19924;-91
2023/01/11 03:04:06;;;;;;;;;;;;;;;;;;5092782;28;19924;-90
2023/01/11 03:06:38;;;;;;;;;;;;;;;;;;5077631;28;19928;-89
2023/01/11 03:09:06;;;;;;;;;;;;;;;;;;5087403;28;19924;-89
2023/01/11 03:14:20;;;;;;;;;;;;;;;;;;5072311;28;19924;-92
2023/01/11 03:16:47;;;;;;;;;;;;;;;;;;5085030;28;19931;-85
2023/01/11 03:19:15;;;;;;;;;;;;;;;;;;5083991;28;19928;-91
2023/01/11 03:21:42;;;;;;;;;;;;;;;;;;5089160;28;19924;-91
2023/01/11 03:24:10;;;;;;;;;;;;;;;;;;5078809;28;19924;-91
2023/01/11 03:26:42;;;;;;;;;;;;;;;;;;5090994;28;19928;-92
2023/01/11 03:29:10;;;;;;;;;;;;;;;;;;5086716;28;19931;-90
2023/01/11 03:31:37;;;;;;;;;;;;;;;;;;5084124;28;19935;-91
2023/01/11 03:34:10;;;;;;;;;;;;;;;;;;5087071;28;19935;-88
2023/01/11 03:36:42;;;;;;;;;;;;;;;;;;5084906;28;19924;-89
2023/01/11 03:39:15;;;;;;;;;;;;;;;;;;5092375;28;20288;-87
2023/01/11 03:41:47;;;;;;;;;;;;;;;;;;5086357;28;19931;-92
2023/01/11 03:44:20;;;;;;;;;;;;;;;;;;5093439;28;20303;-91
2023/01/11 03:46:52;;;;;;;;;;;;;;;;;;5080761;28;20841;-90
2023/01/11 03:49:20;;;;;;;;;;;;;;;;;;5087865;28;19927;-89
2023/01/11 03:51:52;;;;;;;;;;;;;;;;;;5090695;28;20288;-89
2023/01/11 03:54:25;;;;;;;;;;;;;;;;;;5091539;28;20456;-89
2023/01/11 03:56:52;;;;;;;;;;;;;;;;;;5083163;28;19931;-91
2023/01/11 03:59:20;;;;;;;;;;;;;;;;;;5089409;28;19932;-89
2023/01/11 04:01:47;;;;;;;;;;;;;;;;;;5078356;28;19924;-87
2023/01/11 04:04:20;;;;;;;;;;;;;;;;;;5098198;28;19924;-88
2023/01/11 04:06:52;;;;;;;;;;;;;;;;;;5087977;28;19925;-89
2023/01/11 04:09:20;;;;;;;;;;;;;;;;;;5084715;28;19932;-88
2023/01/11 04:11:52;;;;;;;;;;;;;;;;;;5074222;28;19931;-88
2023/01/11 04:14:20;;;;;;;;;;;;;;;;;;5082731;28;20369;-92
2023/01/11 04:16:47;;;;;;;;;;;;;;;;;;5088426;28;20403;-90
2023/01/11 04:19:15;;;;;;;;;;;;;;;;;;5079026;28;20407;-88
2023/01/11 04:21:42;;;;;;;;;;;;;;;;;;5081529;28;19925;-90
2023/01/11 04:24:09;;;;;;;;;;;;;;;;;;5079405;28;19932;-91
2023/01/11 04:26:37;;;;;;;;;;;;;;;;;;5091984;28;19931;-91
2023/01/11 04:29:04;;;;;;;;;;;;;;;;;;5078202;28;19928;-91
2023/01/11 04:31:32;;;;;;;;;;;;;;;;;;5089313;28;19936;-88
2023/01/11 04:34:05;;;;;;;;;;;;;;;;;;5081342;28;19931;-87
2023/01/11 04:36:32;;;;;;;;;;;;;;;;;;5081997;28;19924;-90
2023/01/11 04:39:00;;;;;;;;;;;;;;;;;;5076062;28;19936;-90
2023/01/11 04:44:22;;;;;;;;;;;;;;;;;;5077044;28;19929;-91
2023/01/11 04:46:50;;;;;;;;;;;;;;;;;;5083405;28;19925;-90
2023/01/11 04:49:18;;;;;;;;;;;;;;;;;;5077930;28;19928;-90
2023/01/11 04:51:45;;;;;;;;;;;;;;;;;;5092419;28;19931;-92
2023/01/11 04:54:18;;;;;;;;;;;;;;;;;;5086745;28;19931;-91
2023/01/11 04:56:45;;;;;;;;;;;;;;;;;;5079015;28;19928;-91
2023/01/11 04:59:12;;;;;;;;;;;;;;;;;;5077445;28;19931;-91
2023/01/11 05:01:40;;;;;;;;;;;;;;;;;;5081738;28;19936;-89
2023/01/11 05:04:07;;;;;;;;;;;;;;;;;;5076264;28;19924;-91
2023/01/11 05:06:40;;;;;;;;;;;;;;;;;;5083042;28;19928;-92
2023/01/11 05:09:12;;;;;;;;;;;;;;;;;;5081957;28;20293;-87
2023/01/11 05:11:40;;;;;;;;;;;;;;;;;;5086808;28;19932;-89
2023/01/11 05:14:12;;;;;;;;;;;;;;;;;;5079826;28;19924;-90
2023/01/11 05:16:40;;;;;;;;;;;;;;;;;;5083941;28;19928;-89
2023/01/11 05:19:07;;;;;;;;;;;;;;;;;;5100269;28;19925;-87
2023/01/11 05:21:35;;;;;;;;;;;;;;;;;;5080947;28;19928;-88
2023/01/11 05:24:02;;;;;;;;;;;;;;;;;;5082519;28;19924;-89
2023/01/11 05:26:35;;;;;;;;;;;;;;;;;;5085545;28;20277;-88
2023/01/11 05:29:07;;;;;;;;;;;;;;;;;;5086445;28;19928;-91
2023/01/11 05:31:40;;;;;;;;;;;;;;;;;;5096152;28;20419;-91
2023/01/11 05:34:07;;;;;;;;;;;;;;;;;;5077101;28;20380;-90
2023/01/11 05:36:35;;;;;;;;;;;;;;;;;;5083324;28;19935;-92
2023/01/11 05:39:02;;;;;;;;;;;;;;;;;;5088592;28;19924;-90
2023/01/11 05:41:35;;;;;;;;;;;;;;;;;;5085495;28;19924;-89
2023/01/11 05:46:52;;;;;;;;;;;;;;;;;;5086730;28;19932;-87
2023/01/11 05:49:25;;;;;;;;;;;;;;;;;;5093229;28;20297;-90
2023/01/11 05:51:57;;;;;;;;;;;;;;;;;;5083695;28;20281;-90
2023/01/11 05:54:25;;;;;;;;;;;;;;;;;;5084985;28;19929;-89
2023/01/11 05:56:52;;;;;;;;;;;;;;;;;;5085349;28;19931;-87
2023/01/11 05:59:20;;;;;;;;;;;;;;;;;;5088472;28;19932;-90
2023/01/11 06:01:48;;;;;;;;;;;;;;;;;;5087310;28;19928;-90
2023/01/11 06:04:21;;;;;;;;;;;;;;;;;;5082994;28;20605;-89
2023/01/11 06:06:53;;;;;;;;;;;;;;;;;;5089612;28;20300;-89
2023/01/11 06:09:21;;;;;;;;;;;;;;;;;;5090392;28;19932;-92
2023/01/11 06:11:53;;;;;;;;;;;;;;;;;;5089539;28;19928;-89
2023/01/11 06:14:26;;;;;;;;;;;;;;;;;;5086220;28;20373;-90
2023/01/11 06:16:54;;;;;;;;;;;;;;;;;;5082959;28;19932;-91
2023/01/11 06:19:26;;;;;;;;;;;;;;;;;;5091129;28;19929;-87
2023/01/11 06:21:59;;;;;;;;;;;;;;;;;;5082712;28;19924;-92
2023/01/11 06:24:31;;;;;;;;;;;;;;;;;;5089106;28;19935;-90
2023/01/11 06:26:59;;;;;;;;;;;;;;;;;;5086203;28;19924;-91
2023/01/11 06:29:31;;;;;;;;;;;;;;;;;;5094719;28;19935;-90
2023/01/11 06:32:03;;;;;;;;;;;;;;;;;;5091155;28;19924;-91
2023/01/11 06:34:31;;;;;;;;;;;;;;;;;;5097637;28;19928;-88
2023/01/11 06:37:03;;;;;;;;;;;;;;;;;;5088808;28;19924;-89
2023/01/11 06:39:31;;;;;;;;;;;;;;;;;;5085405;27;19927;-90
2023/01/11 06:42:03;;;;;;;;;;;;;;;;;;5092555;28;19928;-88
2023/01/11 06:44:36;;;;;;;;;;;;;;;;;;5096364;28;19932;-91
2023/01/11 06:47:03;;;;;;;;;;;;;;;;;;5090717;28;19924;-91
2023/01/11 06:49:31;;;;;;;;;;;;;;;;;;5083672;28;19932;-88
2023/01/11 06:51:58;;;;;;;;;;;;;;;;;;5079290;28;19939;-91
2023/01/11 06:54:31;;;;;;;;;;;;;;;;;;5092227;28;19939;-90
2023/01/11 06:57:03;;;;;;;;;;;;;;;;;;5084607;28;20482;-92
2023/01/11 06:59:31;;;;;;;;;;;;;;;;;;5085567;28;20308;-88
2023/01/11 07:02:03;;;;;;;;;;;;;;;;;;5087245;28;19924;-88
2023/01/11 07:04:36;;;;;;;;;;;;;;;;;;5090554;28;19944;-87
2023/01/11 07:07:08;;;;;;;;;;;;;;;;;;5105139;28;19924;-90
2023/01/11 07:09:36;;;;;;;;;;;;;;;;;;5084928;28;19935;-90
2023/01/11 07:12:08;;;;;;;;;;;;;;;;;;5078086;28;19931;-89
2023/01/11 07:14:41;;;;;;;;;;;;;;;;;;5092388;28;19935;-90
2023/01/11 07:17:13;;;;;;;;;;;;;;;;;;5089199;28;19925;-89
2023/01/11 07:19:41;;;;;;;;;;;;;;;;;;5088633;28;20296;-92
2023/01/11 07:22:14;;;;;;;;;;;;;;;;;;5084843;28;19939;-89
2023/01/11 07:24:47;;;;;;;;;;;;;;;;;;5094260;28;19924;-86
2023/01/11 07:27:14;;;;;;;;;;;;;;;;;;5089616;28;19924;-91
2023/01/11 07:29:42;;;;;;;;;;;;;;;;;;5085641;28;19924;-88
2023/01/11 07:32:10;;;;;;;;;;;;;;;;;;5081866;28;20651;-89
2023/01/11 07:34:42;;;;;;;;;;;;;;;;;;5087904;28;19924;-86
2023/01/11 07:37:15;;;;;;;;;;;;;;;;;;5086075;28;19928;-90
2023/01/11 07:39:47;;;;;;;;;;;;;;;;;;5086539;28;19931;-89
2023/01/11 07:45:00;;;;;;;;;;;;;;;;;;5082049;28;19931;-87
2023/01/11 07:47:35;;;;;;;;;;;;;;;;;;5075724;28;21429;-85
2023/01/11 07:50:07;;;;;;;;;;;;;;;;;;5080968;28;19951;-88
2023/01/11 07:52:35;;;;;;;;;;;;;;;;;;5084016;28;19998;-87
2023/01/11 07:55:06;;;;;;;;;;;;;;;;;;5089869;28;19928;-88
2023/01/11 07:57:39;;;;;;;;;;;;;;;;;;5081015;28;20327;-87
2023/01/11 08:00:06;;;;;;;;;;;;;;;;;;5080657;28;19925;-88
2023/01/11 08:02:38;;;;;;;;;;;;;;;;;;5091463;28;19935;-85
2023/01/11 08:05:05;;;;;;;;;;;;;;;;;;5065065;28;19939;-86
2023/01/11 08:07:33;;;;;;;;;;;;;;;;;;5074735;28;19928;-84
2023/01/11 08:10:01;;;;;;;;;;;;;;;;;;5094140;27;19935;-85
2023/01/11 08:15:17;;;;;;;;;;;;;;;;;;5029271;28;21224;-84
2023/01/11 08:17:44;;;;;;;;;;;;;;;;;;5068253;28;19939;-90
2023/01/11 08:20:12;;;;;;;;;;;;;;;;;;5068909;28;19932;-86
2023/01/11 08:22:40;;;;;;;;;;;;;;;;;;5073545;28;19932;-87
2023/01/11 08:25:07;;;;;;;;;;;;;;;;;;5071221;28;19932;-85
2023/01/11 08:27:40;;;;;;;;;;;;;;;;;;5070573;28;19939;-87
2023/01/11 08:30:12;;;;;;;;;;;;;;;;;;5069094;28;19943;-87
2023/01/11 08:32:45;;;;;;;;;;;;;;;;;;5067751;28;19979;-88
2023/01/11 08:35:12;;;;;;;;;;;;;;;;;;5066312;28;19932;-85
2023/01/11 08:37:40;;;;;;;;;;;;;;;;;;5066234;28;19932;-85
2023/01/11 08:40:12;;;;;;;;;;;;;;;;;;5069604;28;19932;-85
2023/01/11 08:42:40;;;;;;;;;;;;;;;;;;5077206;28;20010;-86
2023/01/11 08:45:12;;;;;;;;;;;;;;;;;;5075170;28;21348;-89
2023/01/11 08:47:40;;;;;;;;;;;;;;;;;;5068649;28;21297;-86
2023/01/11 08:50:15;;;;;;;;;;;;;;;;;;5073112;28;20006;-85
2023/01/11 08:52:42;;;;;;;;;;;;;;;;;;5069396;28;19932;-90
2023/01/11 08:55:15;;;;;;;;;;;;;;;;;;5066135;28;19963;-86
2023/01/11 08:57:42;;;;;;;;;;;;;;;;;;5068379;28;20543;-85
2023/01/11 09:00:10;;;;;;;;;;;;;;;;;;5078326;28;19924;-85
2023/01/11 09:02:37;;;;;;;;;;;;;;;;;;5074421;28;19932;-83
2023/01/11 09:05:05;;;;;;;;;;;;;;;;;;5074072;28;19924;-90
2023/01/11 09:07:32;;;;;;;;;;;;;;;;;;5076953;28;19932;-87
2023/01/11 09:10:05;;;;;;;;;;;;;;;;;;5072745;28;20612;-85
2023/01/11 09:12:32;;;;;;;;;;;;;;;;;;5076069;28;20549;-89
2023/01/11 09:15:05;;;;;;;;;;;;;;;;;;5075881;28;19939;-88
2023/01/11 09:17:37;;;;;;;;;;;;;;;;;;5073693;28;19928;-89
2023/01/11 09:20:05;;;;;;;;;;;;;;;;;;5067240;28;20380;-86
2023/01/11 09:22:33;;;;;;;;;;;;;;;;;;5072585;28;19936;-85
2023/01/11 09:25:01;;;;;;;;;;;;;;;;;;5073544;28;20416;-85
2023/01/11 09:27:33;;;;;;;;;;;;;;;;;;5070217;28;19932;-85
2023/01/11 09:30:06;;;;;;;;;;;;;;;;;;5069437;28;19932;-88
2023/01/11 09:32:38;;;;;;;;;;;;;;;;;;5072240;28;19932;-87
2023/01/11 09:35:06;;;;;;;;;;;;;;;;;;5066646;28;19944;-86
2023/01/11 09:37:35;;;;;;;;;;;;;;;;;;5067655;28;19932;-87
2023/01/11 09:40:03;;;;;;;;;;;;;;;;;;5073511;28;19939;-91
2023/01/11 09:42:36;;;;;;;;;;;;;;;;;;5070491;28;19940;-87
2023/01/11 09:45:09;;;;;;;;;;;;;;;;;;5068424;28;19927;-87
2023/01/11 09:47:39;;;;;;;;;;;;;;;;;;5069514;28;19939;-86
2023/01/11 09:50:12;;;;;;;;;;;;;;;;;;5068795;28;19932;-84
2023/01/11 09:52:45;;;;;;;;;;;;;;;;;;5082957;28;20635;-87
2023/01/11 09:55:22;;;;;;;;;;;;;;;;;;5068074;28;19932;-86
2023/01/11 09:57:54;;;;;;;;;;;;;;;;;;5072419;28;20649;-88
2023/01/11 10:00:22;;;;;;;;;;;;;;;;;;5072682;28;19938;-90
2023/01/11 10:02:58;;;;;;;;;;;;;;;;;;5078058;28;20273;-86
2023/01/11 10:05:31;;;;;;;;;;;;;;;;;;5059294;28;20280;-85
2023/01/11 10:07:58;;;;;;;;;;;;;;;;;;5060899;28;20009;-87
2023/01/11 10:10:26;;;;;;;;;;;;;;;;;;5067592;28;19932;-85
2023/01/11 10:13:02;;;;;;;;;;;;;;;;;;5072743;28;19971;-86
2023/01/11 10:15:31;;;;;;;;;;;;;;;;;;5072008;28;19939;-90
2023/01/11 10:17:59;;;;;;;;;;;;;;;;;;5070304;28;19932;-86
2023/01/11 10:20:29;;;;;;;;;;;;;;;;;;5071163;28;19939;-86
2023/01/11 10:23:03;;;;;;;;;;;;;;;;;;5070965;28;19939;-87
2023/01/11 10:25:43;;;;;;;;;;;;;;;;;;5070771;28;20380;-89
2023/01/11 10:28:18;;;;;;;;;;;;;;;;;;5075058;28;19939;-88
2023/01/11 10:31:06;;;;;;;;;;;;;;;;;;5069507;28;20392;-89
2023/01/11 10:33:50;;;;;;;;;;;;;;;;;;5073018;28;19928;-93
2023/01/11 10:36:38;;;;;;;;;;;;;;;;;;5069848;28;19943;-90
2023/01/11 10:39:16;;;;;;;;;;;;;;;;;;5072737;28;19932;-92
2023/01/11 10:41:51;;;;;;;;;;;;;;;;;;5071988;28;19932;-86
2023/01/11 10:44:21;;;;;;;;;;;;;;;;;;5068213;28;19935;-90
2023/01/11 10:46:53;;;;;;;;;;;;;;;;;;5071233;28;19939;-88
2023/01/11 10:49:27;;;;;;;;;;;;;;;;;;5074096;28;19932;-84
2023/01/11 10:51:59;;;;;;;;;;;;;;;;;;5068351;28;19927;-87
2023/01/11 10:54:28;;;;;;;;;;;;;;;;;;5078129;28;19924;-90
2023/01/11 10:57:01;;;;;;;;;;;;;;;;;;5080699;28;19932;-88
2023/01/11 10:59:34;;;;;;;;;;;;;;;;;;5072339;28;19943;-87
2023/01/11 11:02:02;;;;;;;;;;;;;;;;;;5076388;28;19932;-88
2023/01/11 11:04:30;;;;;;;;;;;;;;;;;;5074234;28;19924;-88
2023/01/11 11:06:57;;;;;;;;;;;;;;;;;;5078063;28;20285;-88
2023/01/11 11:09:25;;;;;;;;;;;;;;;;;;5065147;28;19932;-89
2023/01/11 11:11:53;;;;;;;;;;;;;;;;;;5063375;28;19940;-85
2023/01/11 11:14:20;;;;;;;;;;;;;;;;;;5069308;28;19939;-83
2023/01/11 11:16:53;;;;;;;;;;;;;;;;;;5079032;28;19932;-85
2023/01/11 11:19:25;;;;;;;;;;;;;;;;;;5069741;28;20651;-84
2023/01/11 11:21:53;;;;;;;;;;;;;;;;;;5074708;28;19928;-90
2023/01/11 11:24:20;;;;;;;;;;;;;;;;;;5072954;28;19939;-92
2023/01/11 11:26:48;;;;;;;;;;;;;;;;;;5070690;28;19963;-87
2023/01/11 11:29:15;;;;;;;;;;;;;;;;;;5070082;28;19959;-85
2023/01/11 11:31:48;;;;;;;;;;;;;;;;;;5064979;28;19939;-88
2023/01/11 11:34:15;;;;;;;;;;;;;;;;;;5061323;28;19932;-88
2023/01/11 11:36:48;;;;;;;;;;;;;;;;;;5062328;28;20588;-86
2023/01/11 11:39:20;;;;;;;;;;;;;;;;;;5062852;28;20388;-83
2023/01/11 11:41:48;;;;;;;;;;;;;;;;;;5063971;28;19939;-87
2023/01/11 11:44:16;;;;;;;;;;;;;;;;;;5073627;28;19939;-89
2023/01/11 11:46:43;;;;;;;;;;;;;;;;;;5066705;28;19932;-84
2023/01/11 11:49:16;;;;;;;;;;;;;;;;;;5062327;28;19932;-88
2023/01/11 11:51:48;;;;;;;;;;;;;;;;;;5064315;28;19932;-84
2023/01/11 11:54:16;;;;;;;;;;;;;;;;;;5068001;28;19939;-85
2023/01/11 11:56:48;;;;;;;;;;;;;;;;;;5071825;28;19939;-85
2023/01/11 11:59:17;;;;;;;;;;;;;;;;;;5072542;28;19932;-86
2023/01/11 12:01:52;;;;;;;;;;;;;;;;;;5068191;28;19932;-80
2023/01/11 12:04:24;;;;;;;;;;;;;;;;;;5085986;28;19932;-85
2023/01/11 12:06:57;;;;;;;;;;;;;;;;;;5065642;28;19939;-82
2023/01/11 12:09:24;;;;;;;;;;;;;;;;;;5067479;28;19936;-85
2023/01/11 12:11:57;;;;;;;;;;;;;;;;;;5067095;28;19936;-85
2023/01/11 12:14:24;;;;;;;;;;;;;;;;;;5066841;28;19932;-85
2023/01/11 12:16:51;;;;;;;;;;;;;;;;;;5068727;28;19947;-84
2023/01/11 12:19:19;;;;;;;;;;;;;;;;;;5067148;28;19951;-84
2023/01/11 12:21:52;;;;;;;;;;;;;;;;;;5071358;28;19932;-82
2023/01/11 12:24:21;;;;;;;;;;;;;;;;;;5068514;28;19928;-87
2023/01/11 12:26:48;;;;;;;;;;;;;;;;;;5069782;28;19932;-85
2023/01/11 12:29:21;;;;;;;;;;;;;;;;;;5069052;28;20379;-85
2023/01/11 12:31:53;;;;;;;;;;;;;;;;;;5069673;28;19939;-82
2023/01/11 12:34:21;;;;;;;;;;;;;;;;;;5073109;28;20305;-86
2023/01/11 12:36:53;;;;;;;;;;;;;;;;;;5067461;28;19939;-85
2023/01/11 12:39:21;;;;;;;;;;;;;;;;;;5063779;28;19935;-84
2023/01/11 12:41:53;;;;;;;;;;;;;;;;;;5075153;28;19932;-85
2023/01/11 12:44:26;;;;;;;;;;;;;;;;;;5065092;28;19936;-84
2023/01/11 12:46:54;;;;;;;;;;;;;;;;;;5068474;28;19935;-87
2023/01/11 12:49:26;;;;;;;;;;;;;;;;;;5061494;28;19939;-88
2023/01/11 12:51:59;;;;;;;;;;;;;;;;;;5063351;28;19943;-82
2023/01/11 12:54:31;;;;;;;;;;;;;;;;;;5061611;28;19932;-87
2023/01/11 12:56:59;;;;;;;;;;;;;;;;;;5062178;28;19932;-87
2023/01/11 12:59:31;;;;;;;;;;;;;;;;;;5062854;28;20013;-86
2023/01/11 13:01:59;;;;;;;;;;;;;;;;;;5063750;28;19939;-90
2023/01/11 13:04:33;;;;;;;;;;;;;;;;;;5057369;28;20338;-88
2023/01/11 13:07:01;;;;;;;;;;;;;;;;;;5061703;28;20632;-84
2023/01/11 13:09:28;;;;;;;;;;;;;;;;;;5066833;28;20470;-88
2023/01/11 13:11:56;;;;;;;;;;;;;;;;;;5064991;28;19932;-86
2023/01/11 13:14:23;;;;;;;;;;;;;;;;;;5064539;28;19939;-88
2023/01/11 13:16:56;;;;;;;;;;;;;;;;;;5067316;28;20608;-85
2023/01/11 13:19:23;;;;;;;;;;;;;;;;;;5063123;28;19948;-85
2023/01/11 13:21:52;;;;;;;;;;;;;;;;;;5070227;28;19932;-88
2023/01/11 13:24:24;;;;;;;;;;;;;;;;;;5062914;28;19932;-85
2023/01/11 13:26:51;;;;;;;;;;;;;;;;;;5064786;28;19946;-83
2023/01/11 13:29:19;;;;;;;;;;;;;;;;;;5066366;28;20479;-85
2023/01/11 13:31:46;;;;;;;;;;;;;;;;;;5063373;28;19936;-86
2023/01/11 13:34:14;;;;;;;;;;;;;;;;;;5063148;28;19932;-86
2023/01/11 13:36:47;;;;;;;;;;;;;;;;;;5066785;28;19975;-83
2023/01/11 13:39:19;;;;;;;;;;;;;;;;;;5065435;28;19932;-85
2023/01/11 13:41:52;;;;;;;;;;;;;;;;;;5061918;28;19939;-85
2023/01/11 13:44:20;;;;;;;;;;;;;;;;;;5068469;28;19928;-83
2023/01/11 13:46:52;;;;;;;;;;;;;;;;;;5076350;28;20632;-87
2023/01/11 13:49:25;;;;;;;;;;;;;;;;;;5068879;28;19931;-87
2023/01/11 13:51:52;;;;;;;;;;;;;;;;;;5076920;28;19951;-88
2023/01/11 13:54:20;;;;;;;;;;;;;;;;;;5066884;28;19939;-84
2023/01/11 13:56:47;;;;;;;;;;;;;;;;;;5071851;28;19932;-84
2023/01/11 13:59:15;;;;;;;;;;;;;;;;;;5070456;28;19932;-83
2023/01/11 14:01:43;;;;;;;;;;;;;;;;;;5066638;28;19939;-83
2023/01/11 14:04:15;;;;;;;;;;;;;;;;;;5070864;28;19932;-85
2023/01/11 14:06:50;;;;;;;;;;;;;;;;;;5066501;28;20471;-82
2023/01/11 14:09:17;;;;;;;;;;;;;;;;;;5066570;28;19932;-85
2023/01/11 14:11:50;;;;;;;;;;;;;;;;;;5064222;28;19932;-85
2023/01/11 14:14:18;;;;;;;;;;;;;;;;;;5067917;28;19931;-85
2023/01/11 14:16:45;;;;;;;;;;;;;;;;;;5070710;28;19932;-85
2023/01/11 14:19:13;;;;;;;;;;;;;;;;;;5067398;28;19928;-85
2023/01/11 14:21:45;;;;;;;;;;;;;;;;;;5069084;28;19939;-83
2023/01/11 14:24:18;;;;;;;;;;;;;;;;;;5066027;28;19932;-83
2023/01/11 14:26:51;;;;;;;;;;;;;;;;;;5071238;28;19932;-84
2023/01/11 14:29:18;;;;;;;;;;;;;;;;;;5068861;28;20014;-82
2023/01/11 14:31:51;;;;;;;;;;;;;;;;;;5064615;28;19943;-83
2023/01/11 14:34:23;;;;;;;;;;;;;;;;;;5073723;28;19943;-83
2023/01/11 14:36:51;;;;;;;;;;;;;;;;;;5065488;28;19931;-84
2023/01/11 14:39:18;;;;;;;;;;;;;;;;;;5068463;28;20018;-83
2023/01/11 14:41:51;;;;;;;;;;;;;;;;;;5069409;28;19939;-84
2023/01/11 14:44:18;;;;;;;;;;;;;;;;;;5063544;28;19924;-82
2023/01/11 14:46:46;;;;;;;;;;;;;;;;;;5066889;28;19943;-83
2023/01/11 14:49:19;;;;;;;;;;;;;;;;;;5069926;28;20509;-83
2023/01/11 14:51:51;;;;;;;;;;;;;;;;;;5068115;28;19932;-82
2023/01/11 14:54:20;;;;;;;;;;;;;;;;;;5064403;28;19932;-82
2023/01/11 14:56:47;;;;;;;;;;;;;;;;;;5066476;28;19939;-83
2023/01/11 14:59:20;;;;;;;;;;;;;;;;;;5073335;28;20431;-84
2023/01/11 15:01:49;;;;;;;;;;;;;;;;;;5070409;28;20639;-84
2023/01/11 15:04:17;;;;;;;;;;;;;;;;;;5071504;28;20323;-83
2023/01/11 15:06:45;;;;;;;;;;;;;;;;;;5065670;28;21546;-84
2023/01/11 15:09:13;;;;;;;;;;;;;;;;;;5064155;28;19932;-83
2023/01/11 15:11:41;;;;;;;;;;;;;;;;;;5063103;28;20596;-84
2023/01/11 15:14:10;;;;;;;;;;;;;;;;;;5072188;28;19946;-84
2023/01/11 15:19:29;;;;;;;;;;;;;;;;;;5070561;28;20523;-83
2023/01/11 15:22:02;;;;;;;;;;;;;;;;;;5064748;28;19932;-83
2023/01/11 15:24:30;;;;;;;;;;;;;;;;;;5064780;28;19932;-82
2023/01/11 15:27:07;;;;;;;;;;;;;;;;;;5073258;28;20479;-83
2023/01/11 15:29:41;;;;;;;;;;;;;;;;;;5066806;28;19944;-83
2023/01/11 15:32:24;;;;;;;;;;;;;;;;;;5067048;28;19924;-84
2023/01/11 15:34:53;;;;;;;;;;;;;;;;;;5065101;28;20251;-83
2023/01/11 15:37:21;;;;;;;;;;;;;;;;;;5062205;28;20480;-83
2023/01/11 15:39:53;;;;;;;;;;;;;;;;;;5062886;28;19939;-83
2023/01/11 15:42:26;;;;;;;;;;;;;;;;;;5062947;28;19932;-82
2023/01/11 15:44:56;;;;;;;;;;;;;;;;;;5066157;28;19928;-84
2023/01/11 15:47:29;;;;;;;;;;;;;;;;;;5064865;28;21681;-83
2023/01/11 15:50:06;;;;;;;;;;;;;;;;;;5062532;28;19932;-84
2023/01/11 15:52:36;;;;;;;;;;;;;;;;;;5061823;28;19932;-82
2023/01/11 15:55:04;;;;;;;;;;;;;;;;;;5064613;28;19932;-84
2023/01/11 15:57:31;;;;;;;;;;;;;;;;;;5064846;28;19938;-83
2023/01/11 16:00:04;;;;;;;;;;;;;;;;;;5069632;28;20638;-83
2023/01/11 16:02:31;;;;;;;;;;;;;;;;;;5069699;28;19932;-83
2023/01/11 16:05:04;;;;;;;;;;;;;;;;;;5063116;28;19931;-84
2023/01/11 16:07:37;;;;;;;;;;;;;;;;;;5061436;28;19959;-84
2023/01/11 16:10:06;;;;;;;;;;;;;;;;;;5066508;28;19939;-83
2023/01/11 16:12:33;;;;;;;;;;;;;;;;;;5071756;28;19932;-83
2023/01/11 16:15:06;;;;;;;;;;;;;;;;;;5069203;28;19939;-83
2023/01/11 16:17:38;;;;;;;;;;;;;;;;;;5061833;28;20351;-83
2023/01/11 16:20:06;;;;;;;;;;;;;;;;;;5064543;28;19932;-83
2023/01/11 16:22:38;;;;;;;;;;;;;;;;;;5068286;28;19932;-83
2023/01/11 16:25:11;;;;;;;;;;;;;;;;;;5068394;28;19931;-83
2023/01/11 16:27:43;;;;;;;;;;;;;;;;;;5068235;28;20470;-83
2023/01/11 16:30:11;;;;;;;;;;;;;;;;;;5063947;28;21515;-83
2023/01/11 16:32:38;;;;;;;;;;;;;;;;;;5063724;28;20535;-82
2023/01/11 16:35:11;;;;;;;;;;;;;;;;;;5065034;28;19939;-85
2023/01/11 16:37:38;;;;;;;;;;;;;;;;;;5064564;28;19965;-84
2023/01/11 16:40:11;;;;;;;;;;;;;;;;;;5061511;28;19939;-83
2023/01/11 16:42:38;;;;;;;;;;;;;;;;;;5062610;28;19932;-84
2023/01/11 16:45:11;;;;;;;;;;;;;;;;;;5069839;28;19932;-83
2023/01/11 16:47:43;;;;;;;;;;;;;;;;;;5068108;28;21859;-85
2023/01/11 16:50:16;;;;;;;;;;;;;;;;;;5069778;28;19932;-83
2023/01/11 16:52:43;;;;;;;;;;;;;;;;;;5064490;28;19932;-83
2023/01/11 16:55:16;;;;;;;;;;;;;;;;;;5061631;28;19932;-83
2023/01/11 16:57:43;;;;;;;;;;;;;;;;;;5069533;28;20468;-87
2023/01/11 17:00:11;;;;;;;;;;;;;;;;;;5071836;28;19943;-87
2023/01/11 17:02:47;;;;;;;;;;;;;;;;;;5064962;28;19936;-87
2023/01/11 17:05:20;;;;;;;;;;;;;;;;;;5056530;28;19932;-86
2023/01/11 17:07:52;;;;;;;;;;;;;;;;;;5063479;28;19932;-87
2023/01/11 17:10:26;;;;;;;;;;;;;;;;;;5075326;28;19939;-86
2023/01/11 17:12:59;;;;;;;;;;;;;;;;;;5066977;28;19942;-87
2023/01/11 17:15:31;;;;;;;;;;;;;;;;;;5069286;28;21358;-86
2023/01/11 17:17:59;;;;;;;;;;;;;;;;;;5068149;28;19946;-87
2023/01/11 17:20:26;;;;;;;;;;;;;;;;;;5076475;28;19939;-86
2023/01/11 17:22:54;;;;;;;;;;;;;;;;;;5075441;28;19932;-88
2023/01/11 17:25:26;;;;;;;;;;;;;;;;;;5076232;28;19966;-86
2023/01/11 17:27:59;;;;;;;;;;;;;;;;;;5069445;28;19932;-88
2023/01/11 17:30:27;;;;;;;;;;;;;;;;;;5078027;28;19939;-87
2023/01/11 17:32:59;;;;;;;;;;;;;;;;;;5082826;28;19940;-87
2023/01/11 17:35:27;;;;;;;;;;;;;;;;;;5072410;28;21566;-86
2023/01/11 17:37:54;;;;;;;;;;;;;;;;;;5074819;28;19932;-88